Terminal Aerodrome Forecast
Issued by NWS Portland, OR

Home | Current Version | Previous Version | Text Only | Print | Product List | Glossary On
Versions: 1 2 3 4 5 6 7 8 9 10 11 12 13 14
000
FTUS46 KPQR 210528
TAFAST
TAF
KAST 210528Z 2106/2206 21005KT P6SM BKN150
     FM210900 21006KT P6SM OVC050
     FM211500 28004KT P6SM -RA OVC030
     FM212300 32008KT P6SM -RA BKN015 OVC035=

USA.gov is the U.S. government's official web portal to all federal, state and local government web resources and services.